sensor_id;sensor_type;location;lat;lon;timestamp;P1;durP1;ratioP1;P2;durP2;ratioP2
16642;SDS011;8435;52.184;5.406;2022-07-06T00:00:19;1.80;;;1.27;;
16642;SDS011;8435;52.184;5.406;2022-07-06T00:02:46;2.27;;;1.23;;
16642;SDS011;8435;52.184;5.406;2022-07-06T00:05:12;2.87;;;1.20;;
16642;SDS011;8435;52.184;5.406;2022-07-06T00:07:39;2.00;;;1.50;;
16642;SDS011;8435;52.184;5.406;2022-07-06T00:10:07;1.30;;;1.20;;
16642;SDS011;8435;52.184;5.406;2022-07-06T00:12:34;2.00;;;1.27;;
16642;SDS011;8435;52.184;5.406;2022-07-06T00:15:01;1.97;;;1.27;;
16642;SDS011;8435;52.184;5.406;2022-07-06T00:17:28;1.10;;;1.10;;
16642;SDS011;8435;52.184;5.406;2022-07-06T00:19:55;2.03;;;1.23;;
16642;SDS011;8435;52.184;5.406;2022-07-06T00:22:22;1.67;;;1.10;;
16642;SDS011;8435;52.184;5.406;2022-07-06T00:24:48;2.10;;;1.10;;
16642;SDS011;8435;52.184;5.406;2022-07-06T00:27:16;2.30;;;1.40;;
16642;SDS011;8435;52.184;5.406;2022-07-06T00:29:43;1.70;;;1.10;;
16642;SDS011;8435;52.184;5.406;2022-07-06T00:32:10;1.83;;;1.10;;
16642;SDS011;8435;52.184;5.406;2022-07-06T00:34:37;1.30;;;1.20;;
16642;SDS011;8435;52.184;5.406;2022-07-06T00:37:05;2.33;;;1.17;;
16642;SDS011;8435;52.184;5.406;2022-07-06T00:39:32;1.80;;;1.20;;
16642;SDS011;8435;52.184;5.406;2022-07-06T00:41:59;1.90;;;1.20;;
16642;SDS011;8435;52.184;5.406;2022-07-06T00:44:27;1.50;;;1.40;;
16642;SDS011;8435;52.184;5.406;2022-07-06T00:46:54;1.97;;;1.30;;
16642;SDS011;8435;52.184;5.406;2022-07-06T00:49:21;1.83;;;0.93;;
16642;SDS011;8435;52.184;5.406;2022-07-06T00:52:06;3.10;;;1.30;;
16642;SDS011;8435;52.184;5.406;2022-07-06T00:54:33;1.47;;;1.03;;
16642;SDS011;8435;52.184;5.406;2022-07-06T00:57:02;1.80;;;1.10;;
16642;SDS011;8435;52.184;5.406;2022-07-06T00:59:30;1.80;;;1.30;;
16642;SDS011;8435;52.184;5.406;2022-07-06T01:01:57;3.07;;;1.20;;
16642;SDS011;8435;52.184;5.406;2022-07-06T01:04:24;1.40;;;1.20;;
16642;SDS011;8435;52.184;5.406;2022-07-06T01:06:51;1.47;;;1.10;;
16642;SDS011;8435;52.184;5.406;2022-07-06T01:09:18;1.77;;;1.13;;
16642;SDS011;8435;52.184;5.406;2022-07-06T01:11:45;1.50;;;1.27;;
16642;SDS011;8435;52.184;5.406;2022-07-06T01:14:12;1.20;;;1.10;;
16642;SDS011;8435;52.184;5.406;2022-07-06T01:16:41;1.43;;;1.23;;
16642;SDS011;8435;52.184;5.406;2022-07-06T01:19:09;1.87;;;1.20;;
16642;SDS011;8435;52.184;5.406;2022-07-06T01:21:38;2.57;;;1.50;;
16642;SDS011;8435;52.184;5.406;2022-07-06T01:24:05;1.87;;;1.13;;
16642;SDS011;8435;52.184;5.406;2022-07-06T01:26:32;2.93;;;1.30;;
16642;SDS011;8435;52.184;5.406;2022-07-06T01:28:59;1.67;;;1.17;;
16642;SDS011;8435;52.184;5.406;2022-07-06T01:31:26;2.10;;;1.10;;
16642;SDS011;8435;52.184;5.406;2022-07-06T01:33:53;1.67;;;1.30;;
16642;SDS011;8435;52.184;5.406;2022-07-06T01:36:21;2.53;;;0.90;;
16642;SDS011;8435;52.184;5.406;2022-07-06T01:38:50;1.97;;;1.17;;
16642;SDS011;8435;52.184;5.406;2022-07-06T01:41:18;1.00;;;1.00;;
16642;SDS011;8435;52.184;5.406;2022-07-06T01:43:45;2.67;;;1.20;;
16642;SDS011;8435;52.184;5.406;2022-07-06T01:46:13;1.43;;;0.90;;
16642;SDS011;8435;52.184;5.406;2022-07-06T01:48:40;1.83;;;1.00;;
16642;SDS011;8435;52.184;5.406;2022-07-06T01:51:07;2.57;;;1.30;;
16642;SDS011;8435;52.184;5.406;2022-07-06T01:53:34;3.17;;;1.10;;
16642;SDS011;8435;52.184;5.406;2022-07-06T01:56:02;2.07;;;1.20;;
16642;SDS011;8435;52.184;5.406;2022-07-06T01:58:28;2.40;;;1.10;;
16642;SDS011;8435;52.184;5.406;2022-07-06T02:00:55;1.90;;;1.43;;
16642;SDS011;8435;52.184;5.406;2022-07-06T02:03:22;1.20;;;1.10;;
16642;SDS011;8435;52.184;5.406;2022-07-06T02:05:49;1.73;;;1.10;;
16642;SDS011;8435;52.184;5.406;2022-07-06T02:08:16;1.80;;;1.00;;
16642;SDS011;8435;52.184;5.406;2022-07-06T02:10:42;1.03;;;0.90;;
16642;SDS011;8435;52.184;5.406;2022-07-06T02:13:10;1.20;;;1.10;;
16642;SDS011;8435;52.184;5.406;2022-07-06T02:15:37;1.40;;;1.30;;
16642;SDS011;8435;52.184;5.406;2022-07-06T02:18:04;1.80;;;1.30;;
16642;SDS011;8435;52.184;5.406;2022-07-06T02:20:30;2.23;;;1.30;;
16642;SDS011;8435;52.184;5.406;2022-07-06T02:22:57;2.30;;;1.10;;
16642;SDS011;8435;52.184;5.406;2022-07-06T02:25:24;1.67;;;1.00;;
16642;SDS011;8435;52.184;5.406;2022-07-06T02:27:51;2.07;;;1.33;;
16642;SDS011;8435;52.184;5.406;2022-07-06T02:30:19;2.17;;;1.00;;
16642;SDS011;8435;52.184;5.406;2022-07-06T02:32:46;2.37;;;1.13;;
16642;SDS011;8435;52.184;5.406;2022-07-06T02:35:12;1.10;;;1.10;;
16642;SDS011;8435;52.184;5.406;2022-07-06T02:37:39;1.27;;;1.17;;
16642;SDS011;8435;52.184;5.406;2022-07-06T02:40:06;2.97;;;1.10;;
16642;SDS011;8435;52.184;5.406;2022-07-06T02:42:34;1.07;;;1.00;;
16642;SDS011;8435;52.184;5.406;2022-07-06T02:45:01;1.30;;;0.90;;
16642;SDS011;8435;52.184;5.406;2022-07-06T02:47:29;2.23;;;0.97;;
16642;SDS011;8435;52.184;5.406;2022-07-06T02:49:56;3.37;;;1.17;;
16642;SDS011;8435;52.184;5.406;2022-07-06T02:52:23;1.17;;;1.00;;
16642;SDS011;8435;52.184;5.406;2022-07-06T02:54:50;2.80;;;1.17;;
16642;SDS011;8435;52.184;5.406;2022-07-06T02:57:16;1.37;;;1.10;;
16642;SDS011;8435;52.184;5.406;2022-07-06T02:59:43;1.20;;;1.10;;
16642;SDS011;8435;52.184;5.406;2022-07-06T03:02:11;1.20;;;1.10;;
16642;SDS011;8435;52.184;5.406;2022-07-06T03:04:39;1.33;;;0.93;;
16642;SDS011;8435;52.184;5.406;2022-07-06T03:07:06;1.83;;;1.20;;
16642;SDS011;8435;52.184;5.406;2022-07-06T03:09:32;1.87;;;1.03;;
16642;SDS011;8435;52.184;5.406;2022-07-06T03:11:59;1.17;;;0.97;;
16642;SDS011;8435;52.184;5.406;2022-07-06T03:14:26;2.50;;;1.00;;
16642;SDS011;8435;52.184;5.406;2022-07-06T03:16:52;1.13;;;1.00;;
16642;SDS011;8435;52.184;5.406;2022-07-06T03:19:19;1.10;;;1.00;;
16642;SDS011;8435;52.184;5.406;2022-07-06T03:21:47;1.47;;;1.37;;
16642;SDS011;8435;52.184;5.406;2022-07-06T03:24:14;2.33;;;1.10;;
16642;SDS011;8435;52.184;5.406;2022-07-06T03:26:41;1.30;;;1.20;;
16642;SDS011;8435;52.184;5.406;2022-07-06T03:29:07;2.03;;;1.07;;
16642;SDS011;8435;52.184;5.406;2022-07-06T03:31:34;1.00;;;0.87;;
16642;SDS011;8435;52.184;5.406;2022-07-06T03:34:01;1.20;;;0.90;;
16642;SDS011;8435;52.184;5.406;2022-07-06T03:36:27;1.60;;;1.20;;
16642;SDS011;8435;52.184;5.406;2022-07-06T03:38:55;1.60;;;1.00;;
16642;SDS011;8435;52.184;5.406;2022-07-06T03:41:22;3.10;;;1.17;;
16642;SDS011;8435;52.184;5.406;2022-07-06T03:43:49;1.87;;;0.93;;
16642;SDS011;8435;52.184;5.406;2022-07-06T03:46:16;2.13;;;1.10;;
16642;SDS011;8435;52.184;5.406;2022-07-06T03:48:42;1.23;;;1.13;;
16642;SDS011;8435;52.184;5.406;2022-07-06T03:51:09;1.07;;;1.03;;
16642;SDS011;8435;52.184;5.406;2022-07-06T03:53:36;1.27;;;0.90;;
16642;SDS011;8435;52.184;5.406;2022-07-06T03:56:04;1.20;;;1.10;;
16642;SDS011;8435;52.184;5.406;2022-07-06T03:58:48;1.23;;;1.03;;
16642;SDS011;8435;52.184;5.406;2022-07-06T04:01:15;1.20;;;1.03;;
16642;SDS011;8435;52.184;5.406;2022-07-06T04:03:42;1.53;;;0.90;;
16642;SDS011;8435;52.184;5.406;2022-07-06T04:06:09;1.13;;;1.03;;
16642;SDS011;8435;52.184;5.406;2022-07-06T04:08:36;2.73;;;1.20;;
16642;SDS011;8435;52.184;5.406;2022-07-06T04:11:04;0.97;;;0.97;;
16642;SDS011;8435;52.184;5.406;2022-07-06T04:13:31;1.87;;;1.10;;
16642;SDS011;8435;52.184;5.406;2022-07-06T04:15:58;1.67;;;1.00;;
16642;SDS011;8435;52.184;5.406;2022-07-06T04:18:25;1.73;;;1.23;;
16642;SDS011;8435;52.184;5.406;2022-07-06T04:20:52;2.00;;;1.00;;
16642;SDS011;8435;52.184;5.406;2022-07-06T04:23:18;1.83;;;1.07;;
16642;SDS011;8435;52.184;5.406;2022-07-06T04:25:45;2.00;;;1.30;;
16642;SDS011;8435;52.184;5.406;2022-07-06T04:28:13;1.33;;;0.83;;
16642;SDS011;8435;52.184;5.406;2022-07-06T04:30:40;1.33;;;1.23;;
16642;SDS011;8435;52.184;5.406;2022-07-06T04:33:06;2.50;;;1.10;;
16642;SDS011;8435;52.184;5.406;2022-07-06T04:35:33;1.80;;;1.20;;
16642;SDS011;8435;52.184;5.406;2022-07-06T04:38:00;3.17;;;1.60;;
16642;SDS011;8435;52.184;5.406;2022-07-06T04:40:27;1.03;;;0.93;;
16642;SDS011;8435;52.184;5.406;2022-07-06T04:42:54;1.07;;;1.00;;
16642;SDS011;8435;52.184;5.406;2022-07-06T04:45:22;1.83;;;1.13;;
16642;SDS011;8435;52.184;5.406;2022-07-06T04:47:48;1.27;;;1.00;;
16642;SDS011;8435;52.184;5.406;2022-07-06T04:50:15;2.40;;;1.00;;
16642;SDS011;8435;52.184;5.406;2022-07-06T04:52:42;1.10;;;1.00;;
16642;SDS011;8435;52.184;5.406;2022-07-06T04:55:09;1.00;;;0.80;;
16642;SDS011;8435;52.184;5.406;2022-07-06T04:57:35;1.50;;;1.03;;
16642;SDS011;8435;52.184;5.406;2022-07-06T05:00:03;1.47;;;1.07;;
16642;SDS011;8435;52.184;5.406;2022-07-06T05:02:32;1.67;;;0.80;;
16642;SDS011;8435;52.184;5.406;2022-07-06T05:04:58;2.87;;;1.10;;
16642;SDS011;8435;52.184;5.406;2022-07-06T05:07:25;1.17;;;1.07;;
16642;SDS011;8435;52.184;5.406;2022-07-06T05:09:54;2.07;;;0.90;;
16642;SDS011;8435;52.184;5.406;2022-07-06T05:12:20;3.07;;;1.00;;
16642;SDS011;8435;52.184;5.406;2022-07-06T05:14:47;1.27;;;0.93;;
16642;SDS011;8435;52.184;5.406;2022-07-06T05:17:14;1.50;;;1.00;;
16642;SDS011;8435;52.184;5.406;2022-07-06T05:19:42;1.03;;;0.90;;
16642;SDS011;8435;52.184;5.406;2022-07-06T05:22:09;1.30;;;1.00;;
16642;SDS011;8435;52.184;5.406;2022-07-06T05:24:35;1.17;;;0.80;;
16642;SDS011;8435;52.184;5.406;2022-07-06T05:27:02;2.13;;;1.00;;
16642;SDS011;8435;52.184;5.406;2022-07-06T05:29:30;2.03;;;0.80;;
16642;SDS011;8435;52.184;5.406;2022-07-06T05:31:56;1.33;;;0.80;;
16642;SDS011;8435;52.184;5.406;2022-07-06T05:34:23;1.50;;;0.70;;
16642;SDS011;8435;52.184;5.406;2022-07-06T05:36:51;0.93;;;0.80;;
16642;SDS011;8435;52.184;5.406;2022-07-06T05:39:18;0.93;;;0.73;;
16642;SDS011;8435;52.184;5.406;2022-07-06T05:41:47;1.00;;;0.80;;
16642;SDS011;8435;52.184;5.406;2022-07-06T05:44:15;1.50;;;0.80;;
16642;SDS011;8435;52.184;5.406;2022-07-06T05:46:41;1.83;;;0.80;;
16642;SDS011;8435;52.184;5.406;2022-07-06T05:49:08;1.10;;;1.00;;
16642;SDS011;8435;52.184;5.406;2022-07-06T05:51:54;0.90;;;0.80;;
16642;SDS011;8435;52.184;5.406;2022-07-06T05:54:21;2.33;;;0.97;;
16642;SDS011;8435;52.184;5.406;2022-07-06T05:56:48;3.33;;;1.10;;
16642;SDS011;8435;52.184;5.406;2022-07-06T05:59:14;1.23;;;0.80;;
16642;SDS011;8435;52.184;5.406;2022-07-06T06:01:41;2.87;;;0.90;;
16642;SDS011;8435;52.184;5.406;2022-07-06T06:04:08;1.75;;;0.90;;
16642;SDS011;8435;52.184;5.406;2022-07-06T06:06:34;1.33;;;0.88;;
16642;SDS011;8435;52.184;5.406;2022-07-06T06:09:03;1.50;;;0.90;;
16642;SDS011;8435;52.184;5.406;2022-07-06T06:11:29;1.65;;;0.70;;
16642;SDS011;8435;52.184;5.406;2022-07-06T06:13:56;1.20;;;0.90;;
16642;SDS011;8435;52.184;5.406;2022-07-06T06:16:23;4.22;;;0.95;;
16642;SDS011;8435;52.184;5.406;2022-07-06T06:18:49;1.13;;;0.90;;
16642;SDS011;8435;52.184;5.406;2022-07-06T06:21:16;1.92;;;1.00;;
16642;SDS011;8435;52.184;5.406;2022-07-06T06:23:43;0.82;;;0.70;;
16642;SDS011;8435;52.184;5.406;2022-07-06T06:26:11;2.22;;;0.90;;
16642;SDS011;8435;52.184;5.406;2022-07-06T06:28:38;1.65;;;0.77;;
16642;SDS011;8435;52.184;5.406;2022-07-06T06:31:06;2.08;;;1.00;;
16642;SDS011;8435;52.184;5.406;2022-07-06T06:33:33;2.65;;;0.70;;
16642;SDS011;8435;52.184;5.406;2022-07-06T06:36:00;1.00;;;0.82;;
16642;SDS011;8435;52.184;5.406;2022-07-06T06:38:26;1.05;;;0.52;;
16642;SDS011;8435;52.184;5.406;2022-07-06T06:40:54;0.75;;;0.63;;
16642;SDS011;8435;52.184;5.406;2022-07-06T06:43:22;1.48;;;0.80;;
16642;SDS011;8435;52.184;5.406;2022-07-06T06:45:49;1.17;;;0.65;;
16642;SDS011;8435;52.184;5.406;2022-07-06T06:48:16;1.00;;;0.63;;
16642;SDS011;8435;52.184;5.406;2022-07-06T06:50:44;3.17;;;0.63;;
16642;SDS011;8435;52.184;5.406;2022-07-06T06:53:10;1.10;;;0.60;;
16642;SDS011;8435;52.184;5.406;2022-07-06T06:55:37;0.77;;;0.60;;
16642;SDS011;8435;52.184;5.406;2022-07-06T06:58:04;2.03;;;0.65;;
16642;SDS011;8435;52.184;5.406;2022-07-06T07:00:32;1.48;;;1.00;;
16642;SDS011;8435;52.184;5.406;2022-07-06T07:02:59;2.35;;;0.70;;
16642;SDS011;8435;52.184;5.406;2022-07-06T07:05:26;1.05;;;0.77;;
16642;SDS011;8435;52.184;5.406;2022-07-06T07:07:52;1.00;;;0.63;;
16642;SDS011;8435;52.184;5.406;2022-07-06T07:10:23;0.70;;;0.60;;
16642;SDS011;8435;52.184;5.406;2022-07-06T07:12:50;0.77;;;0.63;;
16642;SDS011;8435;52.184;5.406;2022-07-06T07:15:18;0.90;;;0.65;;
16642;SDS011;8435;52.184;5.406;2022-07-06T07:17:46;0.88;;;0.70;;
16642;SDS011;8435;52.184;5.406;2022-07-06T07:20:13;0.75;;;0.60;;
16642;SDS011;8435;52.184;5.406;2022-07-06T07:22:40;0.98;;;0.63;;
16642;SDS011;8435;52.184;5.406;2022-07-06T07:25:07;1.05;;;0.50;;
16642;SDS011;8435;52.184;5.406;2022-07-06T07:27:34;1.27;;;0.75;;
16642;SDS011;8435;52.184;5.406;2022-07-06T07:30:00;0.90;;;0.60;;
16642;SDS011;8435;52.184;5.406;2022-07-06T07:32:27;1.63;;;0.60;;
16642;SDS011;8435;52.184;5.406;2022-07-06T07:34:55;1.33;;;0.60;;
16642;SDS011;8435;52.184;5.406;2022-07-06T07:37:22;0.55;;;0.55;;
16642;SDS011;8435;52.184;5.406;2022-07-06T07:39:49;0.40;;;0.40;;
16642;SDS011;8435;52.184;5.406;2022-07-06T07:42:15;1.02;;;0.60;;
16642;SDS011;8435;52.184;5.406;2022-07-06T07:44:42;0.60;;;0.60;;
16642;SDS011;8435;52.184;5.406;2022-07-06T07:47:09;2.33;;;0.80;;
16642;SDS011;8435;52.184;5.406;2022-07-06T07:49:36;0.63;;;0.60;;
16642;SDS011;8435;52.184;5.406;2022-07-06T07:52:04;0.85;;;0.70;;
16642;SDS011;8435;52.184;5.406;2022-07-06T07:54:31;1.75;;;0.70;;
16642;SDS011;8435;52.184;5.406;2022-07-06T07:56:58;0.73;;;0.70;;
16642;SDS011;8435;52.184;5.406;2022-07-06T07:59:25;0.63;;;0.63;;
16642;SDS011;8435;52.184;5.406;2022-07-06T08:01:52;0.90;;;0.70;;
16642;SDS011;8435;52.184;5.406;2022-07-06T08:04:18;1.13;;;0.70;;
16642;SDS011;8435;52.184;5.406;2022-07-06T08:06:45;0.85;;;0.70;;
16642;SDS011;8435;52.184;5.406;2022-07-06T08:09:14;0.70;;;0.63;;
16642;SDS011;8435;52.184;5.406;2022-07-06T08:11:41;2.08;;;0.98;;
16642;SDS011;8435;52.184;5.406;2022-07-06T08:14:08;0.73;;;0.70;;
16642;SDS011;8435;52.184;5.406;2022-07-06T08:16:35;1.77;;;0.55;;
16642;SDS011;8435;52.184;5.406;2022-07-06T08:19:02;0.60;;;0.60;;
16642;SDS011;8435;52.184;5.406;2022-07-06T08:21:28;0.98;;;0.75;;
16642;SDS011;8435;52.184;5.406;2022-07-06T08:23:55;0.70;;;0.50;;
16642;SDS011;8435;52.184;5.406;2022-07-06T08:26:26;0.70;;;0.70;;
16642;SDS011;8435;52.184;5.406;2022-07-06T08:28:53;0.75;;;0.63;;
16642;SDS011;8435;52.184;5.406;2022-07-06T08:31:20;1.85;;;0.80;;
16642;SDS011;8435;52.184;5.406;2022-07-06T08:33:46;0.65;;;0.65;;
16642;SDS011;8435;52.184;5.406;2022-07-06T08:36:13;1.58;;;0.80;;
16642;SDS011;8435;52.184;5.406;2022-07-06T08:38:40;1.92;;;0.90;;
16642;SDS011;8435;52.184;5.406;2022-07-06T08:41:07;0.93;;;0.60;;
16642;SDS011;8435;52.184;5.406;2022-07-06T08:43:36;1.85;;;0.70;;
16642;SDS011;8435;52.184;5.406;2022-07-06T08:46:02;1.25;;;0.68;;
16642;SDS011;8435;52.184;5.406;2022-07-06T08:48:31;1.23;;;0.50;;
16642;SDS011;8435;52.184;5.406;2022-07-06T08:51:02;0.65;;;0.55;;
16642;SDS011;8435;52.184;5.406;2022-07-06T08:53:30;1.50;;;0.70;;
16642;SDS011;8435;52.184;5.406;2022-07-06T08:55:57;0.65;;;0.63;;
16642;SDS011;8435;52.184;5.406;2022-07-06T08:58:23;0.93;;;0.52;;
16642;SDS011;8435;52.184;5.406;2022-07-06T09:00:52;1.40;;;0.80;;
16642;SDS011;8435;52.184;5.406;2022-07-06T09:03:20;1.20;;;0.70;;
16642;SDS011;8435;52.184;5.406;2022-07-06T09:05:46;0.55;;;0.40;;
16642;SDS011;8435;52.184;5.406;2022-07-06T09:08:14;1.35;;;0.52;;
16642;SDS011;8435;52.184;5.406;2022-07-06T09:10:40;0.98;;;0.60;;
16642;SDS011;8435;52.184;5.406;2022-07-06T09:13:08;1.05;;;0.60;;
16642;SDS011;8435;52.184;5.406;2022-07-06T09:15:36;0.50;;;0.50;;
16642;SDS011;8435;52.184;5.406;2022-07-06T09:18:06;1.35;;;0.47;;
16642;SDS011;8435;52.184;5.406;2022-07-06T09:20:33;0.82;;;0.70;;
16642;SDS011;8435;52.184;5.406;2022-07-06T09:23:00;0.93;;;0.82;;
16642;SDS011;8435;52.184;5.406;2022-07-06T09:25:29;0.77;;;0.70;;
16642;SDS011;8435;52.184;5.406;2022-07-06T09:27:57;1.67;;;1.02;;
16642;SDS011;8435;52.184;5.406;2022-07-06T09:30:25;1.38;;;0.82;;
16642;SDS011;8435;52.184;5.406;2022-07-06T09:32:53;3.13;;;0.50;;
16642;SDS011;8435;52.184;5.406;2022-07-06T09:35:23;1.83;;;0.77;;
16642;SDS011;8435;52.184;5.406;2022-07-06T09:38:02;1.30;;;0.68;;
16642;SDS011;8435;52.184;5.406;2022-07-06T09:40:30;0.90;;;0.60;;
16642;SDS011;8435;52.184;5.406;2022-07-06T09:43:10;1.58;;;0.65;;
16642;SDS011;8435;52.184;5.406;2022-07-06T09:45:38;1.33;;;0.60;;
16642;SDS011;8435;52.184;5.406;2022-07-06T09:48:07;0.57;;;0.57;;
16642;SDS011;8435;52.184;5.406;2022-07-06T09:50:40;0.98;;;0.85;;
16642;SDS011;8435;52.184;5.406;2022-07-06T09:53:12;2.25;;;0.60;;
16642;SDS011;8435;52.184;5.406;2022-07-06T09:55:42;0.82;;;0.60;;
16642;SDS011;8435;52.184;5.406;2022-07-06T09:58:10;0.40;;;0.40;;
16642;SDS011;8435;52.184;5.406;2022-07-06T10:00:37;0.73;;;0.50;;
16642;SDS011;8435;52.184;5.406;2022-07-06T10:03:04;1.00;;;0.70;;
16642;SDS011;8435;52.184;5.406;2022-07-06T10:05:33;1.35;;;0.65;;
16642;SDS011;8435;52.184;5.406;2022-07-06T10:08:04;0.85;;;0.60;;
16642;SDS011;8435;52.184;5.406;2022-07-06T10:10:34;1.70;;;0.70;;
16642;SDS011;8435;52.184;5.406;2022-07-06T10:13:02;1.10;;;0.63;;
16642;SDS011;8435;52.184;5.406;2022-07-06T10:15:31;1.23;;;0.55;;
16642;SDS011;8435;52.184;5.406;2022-07-06T10:18:00;1.92;;;0.82;;
16642;SDS011;8435;52.184;5.406;2022-07-06T10:20:29;1.50;;;1.23;;
16642;SDS011;8435;52.184;5.406;2022-07-06T10:22:57;1.13;;;0.60;;
16642;SDS011;8435;52.184;5.406;2022-07-06T10:25:27;0.57;;;0.57;;
16642;SDS011;8435;52.184;5.406;2022-07-06T10:27:54;0.55;;;0.55;;
16642;SDS011;8435;52.184;5.406;2022-07-06T10:30:22;0.73;;;0.57;;
16642;SDS011;8435;52.184;5.406;2022-07-06T10:32:50;1.42;;;0.60;;
16642;SDS011;8435;52.184;5.406;2022-07-06T10:35:18;1.40;;;0.57;;
16642;SDS011;8435;52.184;5.406;2022-07-06T10:37:45;0.93;;;0.50;;
16642;SDS011;8435;52.184;5.406;2022-07-06T10:40:32;0.85;;;0.60;;
16642;SDS011;8435;52.184;5.406;2022-07-06T10:43:17;0.52;;;0.47;;
16642;SDS011;8435;52.184;5.406;2022-07-06T10:45:50;0.55;;;0.50;;
16642;SDS011;8435;52.184;5.406;2022-07-06T10:48:21;1.30;;;0.60;;
16642;SDS011;8435;52.184;5.406;2022-07-06T10:50:50;0.95;;;0.55;;
16642;SDS011;8435;52.184;5.406;2022-07-06T10:53:21;0.60;;;0.40;;
16642;SDS011;8435;52.184;5.406;2022-07-06T10:55:50;2.70;;;0.60;;
16642;SDS011;8435;52.184;5.406;2022-07-06T10:58:37;0.70;;;0.50;;
16642;SDS011;8435;52.184;5.406;2022-07-06T11:01:13;0.95;;;0.52;;
16642;SDS011;8435;52.184;5.406;2022-07-06T11:03:41;0.75;;;0.50;;
16642;SDS011;8435;52.184;5.406;2022-07-06T11:06:10;0.65;;;0.60;;
16642;SDS011;8435;52.184;5.406;2022-07-06T11:08:42;1.60;;;0.70;;
16642;SDS011;8435;52.184;5.406;2022-07-06T11:11:15;0.85;;;0.50;;
16642;SDS011;8435;52.184;5.406;2022-07-06T11:13:43;0.68;;;0.50;;
16642;SDS011;8435;52.184;5.406;2022-07-06T11:16:14;0.40;;;0.40;;
16642;SDS011;8435;52.184;5.406;2022-07-06T11:18:42;0.50;;;0.50;;
16642;SDS011;8435;52.184;5.406;2022-07-06T11:21:16;0.75;;;0.63;;
16642;SDS011;8435;52.184;5.406;2022-07-06T11:23:45;1.58;;;0.52;;
16642;SDS011;8435;52.184;5.406;2022-07-06T11:26:14;0.70;;;0.60;;
16642;SDS011;8435;52.184;5.406;2022-07-06T11:28:42;0.50;;;0.50;;
16642;SDS011;8435;52.184;5.406;2022-07-06T11:31:12;0.70;;;0.50;;
16642;SDS011;8435;52.184;5.406;2022-07-06T11:33:40;1.10;;;1.10;;
16642;SDS011;8435;52.184;5.406;2022-07-06T11:36:13;0.77;;;0.77;;
16642;SDS011;8435;52.184;5.406;2022-07-06T11:38:40;1.38;;;0.60;;
16642;SDS011;8435;52.184;5.406;2022-07-06T11:41:07;0.68;;;0.50;;
16642;SDS011;8435;52.184;5.406;2022-07-06T11:43:37;2.08;;;0.50;;
16642;SDS011;8435;52.184;5.406;2022-07-06T11:46:17;1.10;;;0.52;;
16642;SDS011;8435;52.184;5.406;2022-07-06T11:48:47;0.60;;;0.50;;
16642;SDS011;8435;52.184;5.406;2022-07-06T11:51:14;0.40;;;0.40;;
16642;SDS011;8435;52.184;5.406;2022-07-06T11:53:42;2.10;;;0.52;;
16642;SDS011;8435;52.184;5.406;2022-07-06T11:56:10;0.40;;;0.40;;
16642;SDS011;8435;52.184;5.406;2022-07-06T11:58:39;1.02;;;0.60;;
16642;SDS011;8435;52.184;5.406;2022-07-06T12:01:08;0.50;;;0.50;;
16642;SDS011;8435;52.184;5.406;2022-07-06T12:03:35;1.05;;;0.68;;
16642;SDS011;8435;52.184;5.406;2022-07-06T12:06:03;0.63;;;0.63;;
16642;SDS011;8435;52.184;5.406;2022-07-06T12:08:31;0.65;;;0.60;;
16642;SDS011;8435;52.184;5.406;2022-07-06T12:10:58;0.77;;;0.70;;
16642;SDS011;8435;52.184;5.406;2022-07-06T12:13:26;1.23;;;0.80;;
16642;SDS011;8435;52.184;5.406;2022-07-06T12:15:54;1.80;;;0.50;;
16642;SDS011;8435;52.184;5.406;2022-07-06T12:18:21;1.65;;;0.50;;
16642;SDS011;8435;52.184;5.406;2022-07-06T12:21:02;0.65;;;0.60;;
16642;SDS011;8435;52.184;5.406;2022-07-06T12:23:37;0.57;;;0.57;;
16642;SDS011;8435;52.184;5.406;2022-07-06T12:26:05;0.50;;;0.50;;
16642;SDS011;8435;52.184;5.406;2022-07-06T12:28:32;0.63;;;0.63;;
16642;SDS011;8435;52.184;5.406;2022-07-06T12:31:00;0.52;;;0.50;;
16642;SDS011;8435;52.184;5.406;2022-07-06T12:33:27;0.52;;;0.50;;
16642;SDS011;8435;52.184;5.406;2022-07-06T12:35:54;0.68;;;0.68;;
16642;SDS011;8435;52.184;5.406;2022-07-06T12:38:21;0.40;;;0.40;;
16642;SDS011;8435;52.184;5.406;2022-07-06T12:40:48;0.77;;;0.55;;
16642;SDS011;8435;52.184;5.406;2022-07-06T12:48:52;0.98;;;0.73;;
16642;SDS011;8435;52.184;5.406;2022-07-06T12:51:19;0.77;;;0.52;;
16642;SDS011;8435;52.184;5.406;2022-07-06T12:53:46;1.42;;;0.90;;
16642;SDS011;8435;52.184;5.406;2022-07-06T12:56:13;0.82;;;0.80;;
16642;SDS011;8435;52.184;5.406;2022-07-06T12:58:53;1.42;;;0.80;;
16642;SDS011;8435;52.184;5.406;2022-07-06T13:01:24;1.48;;;0.80;;
16642;SDS011;8435;52.184;5.406;2022-07-06T13:03:55;0.75;;;0.50;;
16642;SDS011;8435;52.184;5.406;2022-07-06T13:06:31;1.05;;;0.60;;
16642;SDS011;8435;52.184;5.406;2022-07-06T13:08:59;1.00;;;0.90;;
16642;SDS011;8435;52.184;5.406;2022-07-06T13:11:26;0.75;;;0.68;;
16642;SDS011;8435;52.184;5.406;2022-07-06T13:13:53;1.40;;;0.88;;
16642;SDS011;8435;52.184;5.406;2022-07-06T13:16:19;0.60;;;0.60;;
16642;SDS011;8435;52.184;5.406;2022-07-06T13:18:50;0.57;;;0.57;;
16642;SDS011;8435;52.184;5.406;2022-07-06T13:21:17;0.70;;;0.60;;
16642;SDS011;8435;52.184;5.406;2022-07-06T13:23:44;1.98;;;0.70;;
16642;SDS011;8435;52.184;5.406;2022-07-06T13:26:10;1.58;;;0.70;;
16642;SDS011;8435;52.184;5.406;2022-07-06T13:28:37;1.73;;;0.65;;
16642;SDS011;8435;52.184;5.406;2022-07-06T13:31:04;1.15;;;0.70;;
16642;SDS011;8435;52.184;5.406;2022-07-06T13:33:31;1.20;;;0.70;;
16642;SDS011;8435;52.184;5.406;2022-07-06T13:35:59;1.05;;;0.82;;
16642;SDS011;8435;52.184;5.406;2022-07-06T13:38:27;1.08;;;0.70;;
16642;SDS011;8435;52.184;5.406;2022-07-06T13:40:53;0.70;;;0.70;;
16642;SDS011;8435;52.184;5.406;2022-07-06T13:43:20;0.98;;;0.70;;
16642;SDS011;8435;52.184;5.406;2022-07-06T13:45:47;1.20;;;0.70;;
16642;SDS011;8435;52.184;5.406;2022-07-06T13:48:14;0.77;;;0.68;;
16642;SDS011;8435;52.184;5.406;2022-07-06T13:50:41;0.88;;;0.80;;
16642;SDS011;8435;52.184;5.406;2022-07-06T13:53:09;0.70;;;0.70;;
16642;SDS011;8435;52.184;5.406;2022-07-06T13:55:35;1.38;;;0.80;;
16642;SDS011;8435;52.184;5.406;2022-07-06T13:58:02;1.23;;;0.80;;
16642;SDS011;8435;52.184;5.406;2022-07-06T14:00:29;1.73;;;0.60;;
16642;SDS011;8435;52.184;5.406;2022-07-06T14:02:56;1.17;;;0.80;;
16642;SDS011;8435;52.184;5.406;2022-07-06T14:05:22;0.77;;;0.60;;
16642;SDS011;8435;52.184;5.406;2022-07-06T14:07:49;0.95;;;0.95;;
16642;SDS011;8435;52.184;5.406;2022-07-06T14:10:17;1.10;;;0.80;;
16642;SDS011;8435;52.184;5.406;2022-07-06T14:12:44;0.98;;;0.82;;
16642;SDS011;8435;52.184;5.406;2022-07-06T14:15:10;0.90;;;0.88;;
16642;SDS011;8435;52.184;5.406;2022-07-06T14:17:37;1.13;;;1.02;;
16642;SDS011;8435;52.184;5.406;2022-07-06T14:20:04;1.25;;;0.88;;
16642;SDS011;8435;52.184;5.406;2022-07-06T14:22:32;1.02;;;0.90;;
16642;SDS011;8435;52.184;5.406;2022-07-06T14:24:59;1.27;;;0.88;;
16642;SDS011;8435;52.184;5.406;2022-07-06T14:27:27;1.27;;;1.10;;
16642;SDS011;8435;52.184;5.406;2022-07-06T14:29:53;3.05;;;0.80;;
16642;SDS011;8435;52.184;5.406;2022-07-06T14:32:20;1.52;;;0.98;;
16642;SDS011;8435;52.184;5.406;2022-07-06T14:34:47;1.30;;;1.00;;
16642;SDS011;8435;52.184;5.406;2022-07-06T14:37:13;0.73;;;0.70;;
16642;SDS011;8435;52.184;5.406;2022-07-06T14:39:40;1.65;;;1.10;;
16642;SDS011;8435;52.184;5.406;2022-07-06T14:42:07;1.50;;;0.88;;
16642;SDS011;8435;52.184;5.406;2022-07-06T14:44:36;1.05;;;0.90;;
16642;SDS011;8435;52.184;5.406;2022-07-06T14:47:02;1.33;;;1.00;;
16642;SDS011;8435;52.184;5.406;2022-07-06T14:49:29;2.28;;;1.23;;
16642;SDS011;8435;52.184;5.406;2022-07-06T14:51:56;1.52;;;0.98;;
16642;SDS011;8435;52.184;5.406;2022-07-06T14:54:23;1.60;;;1.10;;
16642;SDS011;8435;52.184;5.406;2022-07-06T14:56:50;1.20;;;1.10;;
16642;SDS011;8435;52.184;5.406;2022-07-06T14:59:17;1.55;;;1.00;;
16642;SDS011;8435;52.184;5.406;2022-07-06T15:01:46;2.47;;;1.30;;
16642;SDS011;8435;52.184;5.406;2022-07-06T15:04:13;2.25;;;1.27;;
16642;SDS011;8435;52.184;5.406;2022-07-06T15:06:39;2.10;;;1.45;;
16642;SDS011;8435;52.184;5.406;2022-07-06T15:09:06;1.35;;;1.15;;